sensor_id;sensor_type;location;lat;lon;timestamp;P1;durP1;ratioP1;P2;durP2;ratioP2
66429;SDS011;53242;51.694;10.006;2023-12-20T00:00:05;8.93;;;3.10;;
66429;SDS011;53242;51.694;10.006;2023-12-20T00:02:28;8.02;;;2.60;;
66429;SDS011;53242;51.694;10.006;2023-12-20T00:04:51;8.88;;;3.33;;
66429;SDS011;53242;51.694;10.006;2023-12-20T00:07:13;7.55;;;2.95;;
66429;SDS011;53242;51.694;10.006;2023-12-20T00:09:36;4.22;;;1.55;;
66429;SDS011;53242;51.694;10.006;2023-12-20T00:11:58;11.18;;;3.78;;
66429;SDS011;53242;51.694;10.006;2023-12-20T00:14:20;12.98;;;3.67;;
66429;SDS011;53242;51.694;10.006;2023-12-20T00:16:43;7.18;;;2.80;;
66429;SDS011;53242;51.694;10.006;2023-12-20T00:19:05;10.23;;;3.17;;
66429;SDS011;53242;51.694;10.006;2023-12-20T00:21:28;8.25;;;3.10;;
66429;SDS011;53242;51.694;10.006;2023-12-20T00:23:50;9.15;;;3.40;;
66429;SDS011;53242;51.694;10.006;2023-12-20T00:26:12;9.80;;;3.22;;
66429;SDS011;53242;51.694;10.006;2023-12-20T00:28:35;10.25;;;3.30;;
66429;SDS011;53242;51.694;10.006;2023-12-20T00:30:57;6.10;;;2.03;;
66429;SDS011;53242;51.694;10.006;2023-12-20T00:33:20;8.60;;;3.50;;
66429;SDS011;53242;51.694;10.006;2023-12-20T00:35:42;8.68;;;2.90;;
66429;SDS011;53242;51.694;10.006;2023-12-20T00:38:04;6.85;;;2.55;;
66429;SDS011;53242;51.694;10.006;2023-12-20T00:40:28;10.38;;;3.08;;
66429;SDS011;53242;51.694;10.006;2023-12-20T00:42:51;8.60;;;3.22;;
66429;SDS011;53242;51.694;10.006;2023-12-20T00:45:13;9.63;;;3.60;;
66429;SDS011;53242;51.694;10.006;2023-12-20T00:47:36;9.02;;;3.10;;
66429;SDS011;53242;51.694;10.006;2023-12-20T00:49:58;9.32;;;3.17;;
66429;SDS011;53242;51.694;10.006;2023-12-20T00:52:21;9.90;;;3.25;;
66429;SDS011;53242;51.694;10.006;2023-12-20T00:54:45;8.15;;;3.03;;
66429;SDS011;53242;51.694;10.006;2023-12-20T00:57:07;9.45;;;3.42;;
66429;SDS011;53242;51.694;10.006;2023-12-20T00:59:30;8.27;;;3.13;;
66429;SDS011;53242;51.694;10.006;2023-12-20T01:01:52;7.72;;;3.05;;
66429;SDS011;53242;51.694;10.006;2023-12-20T01:04:15;9.35;;;3.72;;
66429;SDS011;53242;51.694;10.006;2023-12-20T01:06:37;8.20;;;2.88;;
66429;SDS011;53242;51.694;10.006;2023-12-20T01:08:59;8.88;;;3.03;;
66429;SDS011;53242;51.694;10.006;2023-12-20T01:11:22;9.90;;;3.42;;
66429;SDS011;53242;51.694;10.006;2023-12-20T01:13:44;9.57;;;3.45;;
66429;SDS011;53242;51.694;10.006;2023-12-20T01:16:08;10.90;;;3.85;;
66429;SDS011;53242;51.694;10.006;2023-12-20T01:18:32;8.80;;;3.03;;
66429;SDS011;53242;51.694;10.006;2023-12-20T01:20:55;10.05;;;3.55;;
66429;SDS011;53242;51.694;10.006;2023-12-20T01:23:17;8.70;;;2.75;;
66429;SDS011;53242;51.694;10.006;2023-12-20T01:25:40;9.55;;;3.35;;
66429;SDS011;53242;51.694;10.006;2023-12-20T01:28:02;9.73;;;3.25;;
66429;SDS011;53242;51.694;10.006;2023-12-20T01:30:25;9.70;;;3.88;;
66429;SDS011;53242;51.694;10.006;2023-12-20T01:32:47;10.32;;;3.22;;
66429;SDS011;53242;51.694;10.006;2023-12-20T01:35:10;9.63;;;3.28;;
66429;SDS011;53242;51.694;10.006;2023-12-20T01:37:33;10.15;;;3.42;;
66429;SDS011;53242;51.694;10.006;2023-12-20T01:39:56;7.28;;;3.22;;
66429;SDS011;53242;51.694;10.006;2023-12-20T01:42:18;10.48;;;3.60;;
66429;SDS011;53242;51.694;10.006;2023-12-20T01:44:41;10.35;;;3.25;;
66429;SDS011;53242;51.694;10.006;2023-12-20T01:47:03;8.18;;;3.20;;
66429;SDS011;53242;51.694;10.006;2023-12-20T01:49:26;9.38;;;3.40;;
66429;SDS011;53242;51.694;10.006;2023-12-20T01:51:49;11.07;;;3.40;;
66429;SDS011;53242;51.694;10.006;2023-12-20T01:54:12;9.93;;;3.58;;
66429;SDS011;53242;51.694;10.006;2023-12-20T01:56:34;10.25;;;3.60;;
66429;SDS011;53242;51.694;10.006;2023-12-20T01:58:57;9.05;;;3.25;;
66429;SDS011;53242;51.694;10.006;2023-12-20T02:01:20;9.02;;;3.30;;
66429;SDS011;53242;51.694;10.006;2023-12-20T02:03:42;10.13;;;3.67;;
66429;SDS011;53242;51.694;10.006;2023-12-20T02:06:05;9.57;;;3.65;;
66429;SDS011;53242;51.694;10.006;2023-12-20T02:08:28;8.80;;;3.25;;
66429;SDS011;53242;51.694;10.006;2023-12-20T02:10:50;8.80;;;2.88;;
66429;SDS011;53242;51.694;10.006;2023-12-20T02:13:13;9.02;;;3.45;;
66429;SDS011;53242;51.694;10.006;2023-12-20T02:15:35;10.07;;;3.47;;
66429;SDS011;53242;51.694;10.006;2023-12-20T02:17:59;10.73;;;3.40;;
66429;SDS011;53242;51.694;10.006;2023-12-20T02:20:21;8.88;;;2.90;;
66429;SDS011;53242;51.694;10.006;2023-12-20T02:22:44;10.43;;;3.50;;
66429;SDS011;53242;51.694;10.006;2023-12-20T02:25:06;9.98;;;3.65;;
66429;SDS011;53242;51.694;10.006;2023-12-20T02:27:29;10.77;;;3.42;;
66429;SDS011;53242;51.694;10.006;2023-12-20T02:29:52;10.07;;;2.97;;
66429;SDS011;53242;51.694;10.006;2023-12-20T02:32:14;8.50;;;2.88;;
66429;SDS011;53242;51.694;10.006;2023-12-20T02:34:38;8.15;;;2.80;;
66429;SDS011;53242;51.694;10.006;2023-12-20T02:37:01;7.15;;;2.72;;
66429;SDS011;53242;51.694;10.006;2023-12-20T02:39:23;7.80;;;3.17;;
66429;SDS011;53242;51.694;10.006;2023-12-20T02:41:46;8.07;;;2.45;;
66429;SDS011;53242;51.694;10.006;2023-12-20T02:44:08;4.82;;;1.83;;
66429;SDS011;53242;51.694;10.006;2023-12-20T02:46:31;6.45;;;2.08;;
66429;SDS011;53242;51.694;10.006;2023-12-20T02:48:53;9.18;;;2.40;;
66429;SDS011;53242;51.694;10.006;2023-12-20T02:51:15;6.15;;;1.55;;
66429;SDS011;53242;51.694;10.006;2023-12-20T02:53:38;8.50;;;2.00;;
66429;SDS011;53242;51.694;10.006;2023-12-20T02:56:00;8.57;;;1.95;;
66429;SDS011;53242;51.694;10.006;2023-12-20T02:58:23;6.07;;;1.50;;
66429;SDS011;53242;51.694;10.006;2023-12-20T03:00:45;7.00;;;1.60;;
66429;SDS011;53242;51.694;10.006;2023-12-20T03:03:07;5.65;;;1.65;;
66429;SDS011;53242;51.694;10.006;2023-12-20T03:05:30;7.20;;;1.75;;
66429;SDS011;53242;51.694;10.006;2023-12-20T03:07:52;6.10;;;1.48;;
66429;SDS011;53242;51.694;10.006;2023-12-20T03:10:15;4.47;;;1.40;;
66429;SDS011;53242;51.694;10.006;2023-12-20T03:12:37;6.68;;;1.75;;
66429;SDS011;53242;51.694;10.006;2023-12-20T03:14:59;7.28;;;1.98;;
66429;SDS011;53242;51.694;10.006;2023-12-20T03:17:22;7.85;;;1.70;;
66429;SDS011;53242;51.694;10.006;2023-12-20T03:19:44;5.70;;;1.58;;
66429;SDS011;53242;51.694;10.006;2023-12-20T03:22:07;7.25;;;1.90;;
66429;SDS011;53242;51.694;10.006;2023-12-20T03:24:29;5.05;;;1.10;;
66429;SDS011;53242;51.694;10.006;2023-12-20T03:26:51;4.30;;;1.30;;
66429;SDS011;53242;51.694;10.006;2023-12-20T03:29:14;4.65;;;1.30;;
66429;SDS011;53242;51.694;10.006;2023-12-20T03:31:36;6.50;;;1.23;;
66429;SDS011;53242;51.694;10.006;2023-12-20T03:33:59;4.63;;;1.30;;
66429;SDS011;53242;51.694;10.006;2023-12-20T03:36:21;8.65;;;1.40;;
66429;SDS011;53242;51.694;10.006;2023-12-20T03:38:43;3.63;;;1.08;;
66429;SDS011;53242;51.694;10.006;2023-12-20T03:41:07;5.75;;;1.40;;
66429;SDS011;53242;51.694;10.006;2023-12-20T03:43:29;5.63;;;1.23;;
66429;SDS011;53242;51.694;10.006;2023-12-20T03:45:51;5.63;;;1.40;;
66429;SDS011;53242;51.694;10.006;2023-12-20T03:48:14;4.82;;;1.10;;
66429;SDS011;53242;51.694;10.006;2023-12-20T03:50:36;4.07;;;1.33;;
66429;SDS011;53242;51.694;10.006;2023-12-20T03:52:59;7.57;;;1.40;;
66429;SDS011;53242;51.694;10.006;2023-12-20T03:55:21;2.53;;;0.93;;
66429;SDS011;53242;51.694;10.006;2023-12-20T03:57:43;3.60;;;1.38;;
66429;SDS011;53242;51.694;10.006;2023-12-20T04:00:09;5.57;;;1.20;;
66429;SDS011;53242;51.694;10.006;2023-12-20T04:02:35;4.85;;;1.02;;
66429;SDS011;53242;51.694;10.006;2023-12-20T04:04:57;5.70;;;1.10;;
66429;SDS011;53242;51.694;10.006;2023-12-20T04:07:19;7.25;;;1.45;;
66429;SDS011;53242;51.694;10.006;2023-12-20T04:09:42;3.40;;;0.60;;
66429;SDS011;53242;51.694;10.006;2023-12-20T04:12:04;3.97;;;0.95;;
66429;SDS011;53242;51.694;10.006;2023-12-20T04:14:27;4.47;;;1.13;;
66429;SDS011;53242;51.694;10.006;2023-12-20T04:16:50;4.90;;;1.13;;
66429;SDS011;53242;51.694;10.006;2023-12-20T04:19:12;4.15;;;1.25;;
66429;SDS011;53242;51.694;10.006;2023-12-20T04:21:35;4.03;;;0.95;;
66429;SDS011;53242;51.694;10.006;2023-12-20T04:23:57;5.35;;;0.90;;
66429;SDS011;53242;51.694;10.006;2023-12-20T04:26:19;5.28;;;1.20;;
66429;SDS011;53242;51.694;10.006;2023-12-20T04:28:42;2.92;;;0.70;;
66429;SDS011;53242;51.694;10.006;2023-12-20T04:31:04;5.45;;;0.98;;
66429;SDS011;53242;51.694;10.006;2023-12-20T04:33:27;4.25;;;1.00;;
66429;SDS011;53242;51.694;10.006;2023-12-20T04:35:49;4.07;;;0.85;;
66429;SDS011;53242;51.694;10.006;2023-12-20T04:38:12;5.88;;;1.17;;
66429;SDS011;53242;51.694;10.006;2023-12-20T04:40:34;4.25;;;0.95;;
66429;SDS011;53242;51.694;10.006;2023-12-20T04:42:56;2.50;;;0.60;;
66429;SDS011;53242;51.694;10.006;2023-12-20T04:45:19;4.90;;;1.13;;
66429;SDS011;53242;51.694;10.006;2023-12-20T04:47:42;0.90;;;0.52;;
66429;SDS011;53242;51.694;10.006;2023-12-20T04:50:04;1.90;;;0.73;;
66429;SDS011;53242;51.694;10.006;2023-12-20T04:52:27;4.45;;;1.38;;
66429;SDS011;53242;51.694;10.006;2023-12-20T04:54:49;3.45;;;1.15;;
66429;SDS011;53242;51.694;10.006;2023-12-20T04:57:12;4.75;;;1.13;;
66429;SDS011;53242;51.694;10.006;2023-12-20T04:59:34;5.15;;;1.17;;
66429;SDS011;53242;51.694;10.006;2023-12-20T05:01:57;4.72;;;1.10;;
66429;SDS011;53242;51.694;10.006;2023-12-20T05:04:19;7.53;;;1.40;;
66429;SDS011;53242;51.694;10.006;2023-12-20T05:06:42;4.38;;;1.00;;
66429;SDS011;53242;51.694;10.006;2023-12-20T05:09:04;4.70;;;1.45;;
66429;SDS011;53242;51.694;10.006;2023-12-20T05:11:27;6.70;;;1.30;;
66429;SDS011;53242;51.694;10.006;2023-12-20T05:13:49;4.53;;;1.10;;
66429;SDS011;53242;51.694;10.006;2023-12-20T05:16:12;6.22;;;0.95;;
66429;SDS011;53242;51.694;10.006;2023-12-20T05:18:36;5.28;;;1.15;;
66429;SDS011;53242;51.694;10.006;2023-12-20T05:20:58;5.53;;;1.30;;
66429;SDS011;53242;51.694;10.006;2023-12-20T05:23:21;5.00;;;1.00;;
66429;SDS011;53242;51.694;10.006;2023-12-20T05:25:43;5.40;;;1.50;;
66429;SDS011;53242;51.694;10.006;2023-12-20T05:28:05;4.53;;;1.17;;
66429;SDS011;53242;51.694;10.006;2023-12-20T05:30:28;5.20;;;1.58;;
66429;SDS011;53242;51.694;10.006;2023-12-20T05:32:50;3.33;;;1.60;;
66429;SDS011;53242;51.694;10.006;2023-12-20T05:35:13;8.15;;;1.48;;
66429;SDS011;53242;51.694;10.006;2023-12-20T05:37:35;5.65;;;1.60;;
66429;SDS011;53242;51.694;10.006;2023-12-20T05:39:58;5.45;;;1.80;;
66429;SDS011;53242;51.694;10.006;2023-12-20T05:42:20;5.30;;;1.75;;
66429;SDS011;53242;51.694;10.006;2023-12-20T05:44:43;5.40;;;1.52;;
66429;SDS011;53242;51.694;10.006;2023-12-20T05:47:05;4.75;;;0.98;;
66429;SDS011;53242;51.694;10.006;2023-12-20T05:49:27;5.07;;;1.35;;
66429;SDS011;53242;51.694;10.006;2023-12-20T05:51:50;12.98;;;2.00;;
66429;SDS011;53242;51.694;10.006;2023-12-20T05:54:13;9.10;;;1.75;;
66429;SDS011;53242;51.694;10.006;2023-12-20T05:56:35;7.00;;;1.70;;
66429;SDS011;53242;51.694;10.006;2023-12-20T05:58:58;4.38;;;1.85;;
66429;SDS011;53242;51.694;10.006;2023-12-20T06:01:21;5.68;;;1.35;;
66429;SDS011;53242;51.694;10.006;2023-12-20T06:03:43;6.88;;;1.63;;
66429;SDS011;53242;51.694;10.006;2023-12-20T06:06:06;4.75;;;1.48;;
66429;SDS011;53242;51.694;10.006;2023-12-20T06:08:29;5.55;;;1.48;;
66429;SDS011;53242;51.694;10.006;2023-12-20T06:10:51;7.25;;;1.40;;
66429;SDS011;53242;51.694;10.006;2023-12-20T06:13:14;6.75;;;1.70;;
66429;SDS011;53242;51.694;10.006;2023-12-20T06:15:36;6.70;;;1.92;;
66429;SDS011;53242;51.694;10.006;2023-12-20T06:17:59;7.38;;;2.03;;
66429;SDS011;53242;51.694;10.006;2023-12-20T06:20:21;8.07;;;2.17;;
66429;SDS011;53242;51.694;10.006;2023-12-20T06:22:43;10.90;;;2.13;;
66429;SDS011;53242;51.694;10.006;2023-12-20T06:25:06;6.03;;;1.88;;
66429;SDS011;53242;51.694;10.006;2023-12-20T06:27:29;6.32;;;2.10;;
66429;SDS011;53242;51.694;10.006;2023-12-20T06:29:51;6.10;;;1.42;;
66429;SDS011;53242;51.694;10.006;2023-12-20T06:32:13;9.02;;;2.20;;
66429;SDS011;53242;51.694;10.006;2023-12-20T06:34:36;9.70;;;2.08;;
66429;SDS011;53242;51.694;10.006;2023-12-20T06:36:59;6.90;;;1.83;;
66429;SDS011;53242;51.694;10.006;2023-12-20T06:39:22;10.77;;;2.28;;
66429;SDS011;53242;51.694;10.006;2023-12-20T06:41:44;6.55;;;1.88;;
66429;SDS011;53242;51.694;10.006;2023-12-20T06:44:07;10.38;;;1.67;;
66429;SDS011;53242;51.694;10.006;2023-12-20T06:46:29;8.32;;;2.10;;
66429;SDS011;53242;51.694;10.006;2023-12-20T06:48:51;4.72;;;1.52;;
66429;SDS011;53242;51.694;10.006;2023-12-20T06:51:14;8.07;;;1.80;;
66429;SDS011;53242;51.694;10.006;2023-12-20T06:53:38;6.78;;;1.67;;
66429;SDS011;53242;51.694;10.006;2023-12-20T06:56:00;8.98;;;2.13;;
66429;SDS011;53242;51.694;10.006;2023-12-20T06:58:23;8.70;;;1.83;;
66429;SDS011;53242;51.694;10.006;2023-12-20T07:00:45;10.88;;;1.85;;
66429;SDS011;53242;51.694;10.006;2023-12-20T07:03:08;6.35;;;1.95;;
66429;SDS011;53242;51.694;10.006;2023-12-20T07:05:31;10.43;;;2.38;;
66429;SDS011;53242;51.694;10.006;2023-12-20T07:07:55;7.85;;;2.42;;
66429;SDS011;53242;51.694;10.006;2023-12-20T07:10:17;9.32;;;2.30;;
66429;SDS011;53242;51.694;10.006;2023-12-20T07:12:39;9.77;;;2.47;;
66429;SDS011;53242;51.694;10.006;2023-12-20T07:15:02;8.15;;;1.90;;
66429;SDS011;53242;51.694;10.006;2023-12-20T07:17:24;6.05;;;1.83;;
66429;SDS011;53242;51.694;10.006;2023-12-20T07:19:47;9.75;;;2.35;;
66429;SDS011;53242;51.694;10.006;2023-12-20T07:22:09;9.15;;;2.60;;
66429;SDS011;53242;51.694;10.006;2023-12-20T07:24:32;5.60;;;2.30;;
66429;SDS011;53242;51.694;10.006;2023-12-20T07:26:54;6.88;;;1.90;;
66429;SDS011;53242;51.694;10.006;2023-12-20T07:29:17;8.40;;;2.17;;
66429;SDS011;53242;51.694;10.006;2023-12-20T07:31:39;6.53;;;2.05;;
66429;SDS011;53242;51.694;10.006;2023-12-20T07:34:02;7.10;;;2.30;;
66429;SDS011;53242;51.694;10.006;2023-12-20T07:36:24;14.85;;;2.60;;
66429;SDS011;53242;51.694;10.006;2023-12-20T07:38:46;12.52;;;2.33;;
66429;SDS011;53242;51.694;10.006;2023-12-20T07:41:12;9.02;;;1.75;;
66429;SDS011;53242;51.694;10.006;2023-12-20T07:43:35;10.07;;;2.45;;
66429;SDS011;53242;51.694;10.006;2023-12-20T07:45:57;13.07;;;2.72;;
66429;SDS011;53242;51.694;10.006;2023-12-20T07:48:25;15.95;;;3.20;;
66429;SDS011;53242;51.694;10.006;2023-12-20T07:50:48;11.50;;;3.20;;
66429;SDS011;53242;51.694;10.006;2023-12-20T07:53:10;12.00;;;2.58;;
66429;SDS011;53242;51.694;10.006;2023-12-20T07:55:32;11.73;;;2.53;;
66429;SDS011;53242;51.694;10.006;2023-12-20T07:57:55;13.20;;;2.95;;
66429;SDS011;53242;51.694;10.006;2023-12-20T08:00:17;16.70;;;3.20;;
66429;SDS011;53242;51.694;10.006;2023-12-20T08:02:40;5.72;;;1.25;;
66429;SDS011;53242;51.694;10.006;2023-12-20T08:05:02;11.02;;;2.83;;
66429;SDS011;53242;51.694;10.006;2023-12-20T08:07:25;16.13;;;3.20;;
66429;SDS011;53242;51.694;10.006;2023-12-20T08:09:47;7.90;;;2.25;;
66429;SDS011;53242;51.694;10.006;2023-12-20T08:12:09;8.23;;;2.63;;
66429;SDS011;53242;51.694;10.006;2023-12-20T08:14:33;6.47;;;1.88;;
66429;SDS011;53242;51.694;10.006;2023-12-20T08:16:55;5.18;;;2.13;;
66429;SDS011;53242;51.694;10.006;2023-12-20T08:19:17;8.05;;;2.05;;
66429;SDS011;53242;51.694;10.006;2023-12-20T08:21:40;7.38;;;1.65;;
66429;SDS011;53242;51.694;10.006;2023-12-20T08:24:02;11.95;;;2.83;;
66429;SDS011;53242;51.694;10.006;2023-12-20T08:26:25;5.40;;;1.90;;
66429;SDS011;53242;51.694;10.006;2023-12-20T08:28:47;6.20;;;2.33;;
66429;SDS011;53242;51.694;10.006;2023-12-20T08:31:13;7.25;;;2.70;;
66429;SDS011;53242;51.694;10.006;2023-12-20T08:33:37;5.15;;;1.88;;
66429;SDS011;53242;51.694;10.006;2023-12-20T08:35:59;11.38;;;3.25;;
66429;SDS011;53242;51.694;10.006;2023-12-20T08:38:22;14.70;;;3.55;;
66429;SDS011;53242;51.694;10.006;2023-12-20T08:40:44;11.82;;;3.05;;
66429;SDS011;53242;51.694;10.006;2023-12-20T08:43:06;8.77;;;3.30;;
66429;SDS011;53242;51.694;10.006;2023-12-20T08:45:29;9.85;;;2.45;;
66429;SDS011;53242;51.694;10.006;2023-12-20T08:47:51;7.03;;;2.13;;
66429;SDS011;53242;51.694;10.006;2023-12-20T08:50:14;8.80;;;2.65;;
66429;SDS011;53242;51.694;10.006;2023-12-20T08:52:37;15.05;;;3.97;;
66429;SDS011;53242;51.694;10.006;2023-12-20T08:54:59;12.82;;;2.78;;
66429;SDS011;53242;51.694;10.006;2023-12-20T08:57:22;11.77;;;2.65;;
66429;SDS011;53242;51.694;10.006;2023-12-20T08:59:47;10.95;;;2.55;;
66429;SDS011;53242;51.694;10.006;2023-12-20T09:02:10;10.73;;;3.00;;
66429;SDS011;53242;51.694;10.006;2023-12-20T09:04:32;8.13;;;1.80;;
66429;SDS011;53242;51.694;10.006;2023-12-20T09:06:54;10.68;;;2.83;;
66429;SDS011;53242;51.694;10.006;2023-12-20T09:09:17;8.13;;;2.35;;
66429;SDS011;53242;51.694;10.006;2023-12-20T09:11:39;14.27;;;3.70;;
66429;SDS011;53242;51.694;10.006;2023-12-20T09:14:02;10.77;;;2.55;;
66429;SDS011;53242;51.694;10.006;2023-12-20T09:16:25;9.88;;;2.47;;
66429;SDS011;53242;51.694;10.006;2023-12-20T09:18:48;8.60;;;2.13;;
66429;SDS011;53242;51.694;10.006;2023-12-20T09:21:10;13.02;;;2.70;;
66429;SDS011;53242;51.694;10.006;2023-12-20T09:23:32;13.23;;;2.83;;
66429;SDS011;53242;51.694;10.006;2023-12-20T09:25:55;8.10;;;2.10;;
66429;SDS011;53242;51.694;10.006;2023-12-20T09:28:17;6.68;;;1.92;;
66429;SDS011;53242;51.694;10.006;2023-12-20T09:30:40;11.18;;;3.40;;
66429;SDS011;53242;51.694;10.006;2023-12-20T09:33:02;11.23;;;2.20;;
66429;SDS011;53242;51.694;10.006;2023-12-20T09:35:25;7.03;;;2.22;;
66429;SDS011;53242;51.694;10.006;2023-12-20T09:37:48;23.98;;;2.20;;
66429;SDS011;53242;51.694;10.006;2023-12-20T09:40:10;16.13;;;2.53;;
66429;SDS011;53242;51.694;10.006;2023-12-20T09:42:39;5.55;;;1.10;;
66429;SDS011;53242;51.694;10.006;2023-12-20T09:45:11;6.10;;;2.00;;
66429;SDS011;53242;51.694;10.006;2023-12-20T09:47:37;11.82;;;2.53;;
66429;SDS011;53242;51.694;10.006;2023-12-20T09:49:59;4.32;;;1.55;;
66429;SDS011;53242;51.694;10.006;2023-12-20T09:52:21;5.40;;;1.63;;
66429;SDS011;53242;51.694;10.006;2023-12-20T09:54:47;8.75;;;2.28;;
66429;SDS011;53242;51.694;10.006;2023-12-20T09:57:11;7.68;;;1.90;;
66429;SDS011;53242;51.694;10.006;2023-12-20T09:59:34;7.68;;;2.40;;
66429;SDS011;53242;51.694;10.006;2023-12-20T10:01:56;11.88;;;2.45;;
66429;SDS011;53242;51.694;10.006;2023-12-20T10:04:19;9.35;;;2.40;;
66429;SDS011;53242;51.694;10.006;2023-12-20T10:06:42;12.18;;;2.47;;
66429;SDS011;53242;51.694;10.006;2023-12-20T10:09:05;7.53;;;2.03;;
66429;SDS011;53242;51.694;10.006;2023-12-20T10:11:27;5.68;;;1.88;;
66429;SDS011;53242;51.694;10.006;2023-12-20T10:13:50;10.73;;;2.15;;
66429;SDS011;53242;51.694;10.006;2023-12-20T10:16:12;8.07;;;2.40;;
66429;SDS011;53242;51.694;10.006;2023-12-20T10:18:35;6.32;;;2.22;;
66429;SDS011;53242;51.694;10.006;2023-12-20T10:20:58;8.25;;;1.83;;
66429;SDS011;53242;51.694;10.006;2023-12-20T10:23:20;5.57;;;1.90;;
66429;SDS011;53242;51.694;10.006;2023-12-20T10:25:42;14.27;;;2.58;;
66429;SDS011;53242;51.694;10.006;2023-12-20T10:28:09;5.13;;;1.48;;
66429;SDS011;53242;51.694;10.006;2023-12-20T10:30:36;5.07;;;1.40;;
66429;SDS011;53242;51.694;10.006;2023-12-20T10:32:58;9.88;;;2.38;;
66429;SDS011;53242;51.694;10.006;2023-12-20T10:35:21;7.18;;;1.52;;
66429;SDS011;53242;51.694;10.006;2023-12-20T10:37:43;8.48;;;1.60;;
66429;SDS011;53242;51.694;10.006;2023-12-20T10:40:06;8.80;;;1.80;;
66429;SDS011;53242;51.694;10.006;2023-12-20T10:42:29;8.20;;;2.03;;
66429;SDS011;53242;51.694;10.006;2023-12-20T10:44:52;9.52;;;2.10;;
66429;SDS011;53242;51.694;10.006;2023-12-20T10:47:18;5.30;;;1.88;;
66429;SDS011;53242;51.694;10.006;2023-12-20T10:49:41;8.48;;;1.75;;
66429;SDS011;53242;51.694;10.006;2023-12-20T10:52:03;10.98;;;2.28;;
66429;SDS011;53242;51.694;10.006;2023-12-20T10:54:28;7.10;;;1.77;;
66429;SDS011;53242;51.694;10.006;2023-12-20T10:56:51;4.43;;;1.90;;
66429;SDS011;53242;51.694;10.006;2023-12-20T10:59:14;7.78;;;2.97;;
66429;SDS011;53242;51.694;10.006;2023-12-20T11:01:41;5.45;;;1.77;;
66429;SDS011;53242;51.694;10.006;2023-12-20T11:04:04;5.50;;;2.00;;
66429;SDS011;53242;51.694;10.006;2023-12-20T11:09:13;4.18;;;1.20;;
66429;SDS011;53242;51.694;10.006;2023-12-20T11:15:04;8.82;;;2.00;;
66429;SDS011;53242;51.694;10.006;2023-12-20T11:17:16;3.55;;;1.42;;
66429;SDS011;53242;51.694;10.006;2023-12-20T11:22:24;4.88;;;1.48;;
66429;SDS011;53242;51.694;10.006;2023-12-20T11:24:47;4.25;;;1.38;;
66429;SDS011;53242;51.694;10.006;2023-12-20T11:27:10;5.80;;;1.83;;
66429;SDS011;53242;51.694;10.006;2023-12-20T11:29:33;4.55;;;1.70;;
66429;SDS011;53242;51.694;10.006;2023-12-20T11:31:59;8.65;;;1.80;;
66429;SDS011;53242;51.694;10.006;2023-12-20T11:34:22;7.30;;;2.13;;
66429;SDS011;53242;51.694;10.006;2023-12-20T11:36:53;8.32;;;1.65;;
66429;SDS011;53242;51.694;10.006;2023-12-20T11:39:20;6.90;;;1.45;;
66429;SDS011;53242;51.694;10.006;2023-12-20T11:41:44;6.47;;;2.15;;
66429;SDS011;53242;51.694;10.006;2023-12-20T11:44:06;3.70;;;1.55;;
66429;SDS011;53242;51.694;10.006;2023-12-20T11:46:31;7.93;;;1.77;;
66429;SDS011;53242;51.694;10.006;2023-12-20T11:48:54;9.75;;;2.00;;
66429;SDS011;53242;51.694;10.006;2023-12-20T11:51:16;5.57;;;1.70;;
66429;SDS011;53242;51.694;10.006;2023-12-20T11:53:39;9.82;;;2.05;;
66429;SDS011;53242;51.694;10.006;2023-12-20T11:56:02;8.68;;;1.80;;
66429;SDS011;53242;51.694;10.006;2023-12-20T11:58:25;4.07;;;1.45;;
66429;SDS011;53242;51.694;10.006;2023-12-20T12:00:49;10.02;;;2.92;;
66429;SDS011;53242;51.694;10.006;2023-12-20T12:03:14;8.48;;;2.03;;
66429;SDS011;53242;51.694;10.006;2023-12-20T12:05:37;4.80;;;1.98;;
66429;SDS011;53242;51.694;10.006;2023-12-20T12:08:00;6.25;;;2.03;;
66429;SDS011;53242;51.694;10.006;2023-12-20T12:10:22;7.63;;;2.25;;
66429;SDS011;53242;51.694;10.006;2023-12-20T12:12:44;6.15;;;2.03;;
66429;SDS011;53242;51.694;10.006;2023-12-20T12:15:07;5.03;;;1.65;;
66429;SDS011;53242;51.694;10.006;2023-12-20T12:17:30;7.18;;;1.75;;
66429;SDS011;53242;51.694;10.006;2023-12-20T12:19:52;2.67;;;1.38;;
66429;SDS011;53242;51.694;10.006;2023-12-20T12:22:24;5.32;;;2.10;;
66429;SDS011;53242;51.694;10.006;2023-12-20T12:24:49;7.68;;;1.75;;
66429;SDS011;53242;51.694;10.006;2023-12-20T12:27:14;9.18;;;2.45;;
66429;SDS011;53242;51.694;10.006;2023-12-20T12:29:38;9.88;;;2.47;;
66429;SDS011;53242;51.694;10.006;2023-12-20T12:32:01;7.13;;;2.00;;
66429;SDS011;53242;51.694;10.006;2023-12-20T12:34:27;5.57;;;1.88;;
66429;SDS011;53242;51.694;10.006;2023-12-20T12:36:50;8.38;;;2.78;;
66429;SDS011;53242;51.694;10.006;2023-12-20T12:39:13;9.13;;;2.78;;
66429;SDS011;53242;51.694;10.006;2023-12-20T12:41:37;4.60;;;1.60;;
66429;SDS011;53242;51.694;10.006;2023-12-20T12:43:59;6.75;;;2.65;;
66429;SDS011;53242;51.694;10.006;2023-12-20T12:46:22;7.57;;;2.35;;
66429;SDS011;53242;51.694;10.006;2023-12-20T12:48:44;6.53;;;3.03;;
66429;SDS011;53242;51.694;10.006;2023-12-20T12:51:07;7.30;;;2.25;;
66429;SDS011;53242;51.694;10.006;2023-12-20T12:53:34;6.22;;;2.03;;
66429;SDS011;53242;51.694;10.006;2023-12-20T12:55:56;10.63;;;2.92;;
66429;SDS011;53242;51.694;10.006;2023-12-20T12:58:19;8.77;;;2.45;;
66429;SDS011;53242;51.694;10.006;2023-12-20T13:00:41;9.25;;;2.60;;
66429;SDS011;53242;51.694;10.006;2023-12-20T13:03:04;5.28;;;1.92;;
66429;SDS011;53242;51.694;10.006;2023-12-20T13:05:26;8.30;;;2.72;;
66429;SDS011;53242;51.694;10.006;2023-12-20T13:07:50;5.95;;;1.92;;
66429;SDS011;53242;51.694;10.006;2023-12-20T13:10:12;8.27;;;2.67;;
66429;SDS011;53242;51.694;10.006;2023-12-20T13:12:34;7.45;;;2.78;;
66429;SDS011;53242;51.694;10.006;2023-12-20T13:14:57;16.73;;;2.92;;
66429;SDS011;53242;51.694;10.006;2023-12-20T13:17:19;5.38;;;1.73;;
66429;SDS011;53242;51.694;10.006;2023-12-20T13:19:42;9.85;;;2.80;;
66429;SDS011;53242;51.694;10.006;2023-12-20T13:22:04;10.20;;;3.05;;
66429;SDS011;53242;51.694;10.006;2023-12-20T13:24:27;10.77;;;2.97;;
66429;SDS011;53242;51.694;10.006;2023-12-20T13:26:49;7.22;;;2.72;;
66429;SDS011;53242;51.694;10.006;2023-12-20T13:29:12;4.28;;;1.85;;
66429;SDS011;53242;51.694;10.006;2023-12-20T13:31:34;9.23;;;2.53;;
66429;SDS011;53242;51.694;10.006;2023-12-20T13:33:58;6.22;;;2.13;;
66429;SDS011;53242;51.694;10.006;2023-12-20T13:36:20;7.97;;;2.42;;
66429;SDS011;53242;51.694;10.006;2023-12-20T13:38:43;10.43;;;3.33;;
66429;SDS011;53242;51.694;10.006;2023-12-20T13:41:05;13.25;;;3.05;;
66429;SDS011;53242;51.694;10.006;2023-12-20T13:43:28;6.75;;;2.10;;
66429;SDS011;53242;51.694;10.006;2023-12-20T13:45:50;5.78;;;2.30;;
66429;SDS011;53242;51.694;10.006;2023-12-20T13:48:13;8.50;;;2.40;;
66429;SDS011;53242;51.694;10.006;2023-12-20T13:50:35;7.90;;;2.53;;
66429;SDS011;53242;51.694;10.006;2023-12-20T13:52:57;4.95;;;1.90;;
66429;SDS011;53242;51.694;10.006;2023-12-20T13:55:20;4.03;;;1.80;;
66429;SDS011;53242;51.694;10.006;2023-12-20T13:57:47;5.10;;;2.03;;
66429;SDS011;53242;51.694;10.006;2023-12-20T14:00:10;11.23;;;2.90;;
66429;SDS011;53242;51.694;10.006;2023-12-20T14:02:36;11.25;;;2.63;;
66429;SDS011;53242;51.694;10.006;2023-12-20T14:04:58;4.97;;;2.00;;
66429;SDS011;53242;51.694;10.006;2023-12-20T14:07:21;8.38;;;2.95;;
66429;SDS011;53242;51.694;10.006;2023-12-20T14:09:43;11.45;;;2.20;;
66429;SDS011;53242;51.694;10.006;2023-12-20T14:12:07;10.43;;;3.20;;